sensor_id;sensor_type;location;lat;lon;timestamp;pressure;altitude;pressure_sealevel;temperature;humidity
21706;BME280;11014;53.076;18.208;2023-05-22T00:00:35;101808.75;;;13.66;60.84
21706;BME280;11014;53.076;18.208;2023-05-22T00:03:22;101805.69;;;13.62;61.01
21706;BME280;11014;53.076;18.208;2023-05-22T00:05:55;101799.31;;;13.57;61.17
21706;BME280;11014;53.076;18.208;2023-05-22T00:08:27;101803.47;;;13.53;61.24
21706;BME280;11014;53.076;18.208;2023-05-22T00:10:56;101803.91;;;13.50;61.31
21706;BME280;11014;53.076;18.208;2023-05-22T00:13:25;101800.63;;;13.48;61.36
21706;BME280;11014;53.076;18.208;2023-05-22T00:15:54;101804.81;;;13.44;61.72
21706;BME280;11014;53.076;18.208;2023-05-22T00:18:23;101798.59;;;13.43;61.67
21706;BME280;11014;53.076;18.208;2023-05-22T00:20:54;101799.44;;;13.44;61.50
21706;BME280;11014;53.076;18.208;2023-05-22T00:23:23;101799.22;;;13.39;61.70
21706;BME280;11014;53.076;18.208;2023-05-22T00:25:52;101801.34;;;13.37;62.07
21706;BME280;11014;53.076;18.208;2023-05-22T00:28:21;101799.50;;;13.31;62.18
21706;BME280;11014;53.076;18.208;2023-05-22T00:30:49;101793.75;;;13.27;62.47
21706;BME280;11014;53.076;18.208;2023-05-22T00:33:18;101784.66;;;13.22;62.30
21706;BME280;11014;53.076;18.208;2023-05-22T00:35:47;101782.81;;;13.16;62.50
21706;BME280;11014;53.076;18.208;2023-05-22T00:38:30;101794.19;;;13.24;62.90
21706;BME280;11014;53.076;18.208;2023-05-22T00:41:00;101787.19;;;13.17;62.59
21706;BME280;11014;53.076;18.208;2023-05-22T00:43:30;101783.44;;;13.18;62.74
21706;BME280;11014;53.076;18.208;2023-05-22T00:45:59;101784.09;;;13.13;62.88
21706;BME280;11014;53.076;18.208;2023-05-22T00:48:28;101797.59;;;13.13;62.95
21706;BME280;11014;53.076;18.208;2023-05-22T00:50:57;101789.69;;;13.12;63.23
21706;BME280;11014;53.076;18.208;2023-05-22T00:53:27;101794.72;;;13.08;63.25
21706;BME280;11014;53.076;18.208;2023-05-22T00:55:58;101789.50;;;13.06;63.18
21706;BME280;11014;53.076;18.208;2023-05-22T00:58:28;101790.56;;;13.05;63.49
21706;BME280;11014;53.076;18.208;2023-05-22T01:00:58;101782.91;;;13.02;63.52
21706;BME280;11014;53.076;18.208;2023-05-22T01:03:27;101787.66;;;13.00;63.76
21706;BME280;11014;53.076;18.208;2023-05-22T01:05:57;101783.09;;;13.01;63.91
21706;BME280;11014;53.076;18.208;2023-05-22T01:08:26;101782.91;;;13.02;63.61
21706;BME280;11014;53.076;18.208;2023-05-22T01:11:07;101785.34;;;13.11;63.86
21706;BME280;11014;53.076;18.208;2023-05-22T01:13:52;101791.78;;;13.10;63.70
21706;BME280;11014;53.076;18.208;2023-05-22T01:23:03;101784.75;;;13.09;64.04
21706;BME280;11014;53.076;18.208;2023-05-22T01:30:43;101795.31;;;13.03;63.87
21706;BME280;11014;53.076;18.208;2023-05-22T01:33:15;101788.56;;;12.94;63.61
21706;BME280;11014;53.076;18.208;2023-05-22T01:35:50;101786.88;;;12.93;63.86
21706;BME280;11014;53.076;18.208;2023-05-22T01:38:23;101790.03;;;12.90;64.06
21706;BME280;11014;53.076;18.208;2023-05-22T01:40:53;101784.03;;;12.88;64.09
21706;BME280;11014;53.076;18.208;2023-05-22T01:43:22;101789.41;;;12.88;64.37
21706;BME280;11014;53.076;18.208;2023-05-22T01:45:51;101783.63;;;12.85;64.21
21706;BME280;11014;53.076;18.208;2023-05-22T01:48:20;101786.56;;;12.83;64.49
21706;BME280;11014;53.076;18.208;2023-05-22T01:50:50;101782.78;;;12.84;64.58
21706;BME280;11014;53.076;18.208;2023-05-22T01:53:29;101783.19;;;12.88;64.52
21706;BME280;11014;53.076;18.208;2023-05-22T01:56:16;101784.03;;;12.88;64.75
21706;BME280;11014;53.076;18.208;2023-05-22T01:58:53;101781.19;;;12.77;64.74
21706;BME280;11014;53.076;18.208;2023-05-22T02:01:26;101786.19;;;12.73;64.57
21706;BME280;11014;53.076;18.208;2023-05-22T02:03:57;101788.88;;;12.73;64.97
21706;BME280;11014;53.076;18.208;2023-05-22T02:06:28;101787.84;;;12.74;64.86
21706;BME280;11014;53.076;18.208;2023-05-22T02:09:00;101779.97;;;12.73;64.94
21706;BME280;11014;53.076;18.208;2023-05-22T02:11:31;101778.28;;;12.78;64.97
21706;BME280;11014;53.076;18.208;2023-05-22T02:14:01;101781.19;;;12.77;64.88
21706;BME280;11014;53.076;18.208;2023-05-22T02:16:31;101772.06;;;12.78;65.05
21706;BME280;11014;53.076;18.208;2023-05-22T02:19:00;101774.97;;;12.76;64.90
21706;BME280;11014;53.076;18.208;2023-05-22T02:21:36;101773.34;;;12.75;65.07
21706;BME280;11014;53.076;18.208;2023-05-22T02:24:04;101776.66;;;12.71;65.24
21706;BME280;11014;53.076;18.208;2023-05-22T02:26:33;101772.09;;;12.71;65.30
21706;BME280;11014;53.076;18.208;2023-05-22T02:29:02;101777.06;;;12.74;65.18
21706;BME280;11014;53.076;18.208;2023-05-22T02:31:31;101772.25;;;12.76;65.43
21706;BME280;11014;53.076;18.208;2023-05-22T02:34:00;101772.66;;;12.80;65.31
21706;BME280;11014;53.076;18.208;2023-05-22T02:36:29;101769.13;;;12.79;65.57
21706;BME280;11014;53.076;18.208;2023-05-22T02:38:58;101772.91;;;12.78;65.62
21706;BME280;11014;53.076;18.208;2023-05-22T02:41:28;101774.16;;;12.76;65.53
21706;BME280;11014;53.076;18.208;2023-05-22T02:43:57;101771.06;;;12.72;66.20
21706;BME280;11014;53.076;18.208;2023-05-22T02:46:25;101767.13;;;12.68;66.14
21706;BME280;11014;53.076;18.208;2023-05-22T02:48:55;101762.56;;;12.69;66.41
21706;BME280;11014;53.076;18.208;2023-05-22T02:51:24;101768.78;;;12.69;66.41
21706;BME280;11014;53.076;18.208;2023-05-22T02:53:53;101769.81;;;12.68;66.67
21706;BME280;11014;53.076;18.208;2023-05-22T02:56:22;101770.00;;;12.73;66.69
21706;BME280;11014;53.076;18.208;2023-05-22T02:58:51;101769.56;;;12.76;66.70
21706;BME280;11014;53.076;18.208;2023-05-22T03:01:19;101765.41;;;12.80;66.61
21706;BME280;11014;53.076;18.208;2023-05-22T03:03:49;101768.72;;;12.82;66.38
21706;BME280;11014;53.076;18.208;2023-05-22T03:06:18;101764.97;;;12.83;66.40
21706;BME280;11014;53.076;18.208;2023-05-22T03:08:47;101766.84;;;12.83;66.68
21706;BME280;11014;53.076;18.208;2023-05-22T03:11:16;101759.59;;;12.83;66.61
21706;BME280;11014;53.076;18.208;2023-05-22T03:13:44;101767.06;;;12.81;66.84
21706;BME280;11014;53.076;18.208;2023-05-22T03:16:13;101761.88;;;12.80;67.29
21706;BME280;11014;53.076;18.208;2023-05-22T03:18:45;101767.06;;;12.81;67.06
21706;BME280;11014;53.076;18.208;2023-05-22T03:21:13;101761.69;;;12.81;67.44
21706;BME280;11014;53.076;18.208;2023-05-22T03:23:43;101765.81;;;12.84;67.56
21706;BME280;11014;53.076;18.208;2023-05-22T03:26:12;101769.50;;;12.89;67.52
21706;BME280;11014;53.076;18.208;2023-05-22T03:28:41;101766.59;;;12.91;67.54
21706;BME280;11014;53.076;18.208;2023-05-22T03:31:10;101760.53;;;12.95;67.65
21706;BME280;11014;53.076;18.208;2023-05-22T03:33:55;101770.59;;;13.06;67.72
21706;BME280;11014;53.076;18.208;2023-05-22T03:36:25;101762.72;;;13.12;67.60
21706;BME280;11014;53.076;18.208;2023-05-22T03:38:55;101766.41;;;13.17;67.75
21706;BME280;11014;53.076;18.208;2023-05-22T03:41:24;101773.88;;;13.22;67.37
21706;BME280;11014;53.076;18.208;2023-05-22T03:43:53;101765.34;;;13.25;67.76
21706;BME280;11014;53.076;18.208;2023-05-22T03:46:23;101769.22;;;13.29;67.50
21706;BME280;11014;53.076;18.208;2023-05-22T03:48:56;101769.38;;;13.34;67.76
21706;BME280;11014;53.076;18.208;2023-05-22T03:51:25;101771.66;;;13.37;67.79
21706;BME280;11014;53.076;18.208;2023-05-22T03:53:54;101771.59;;;13.43;67.64
21706;BME280;11014;53.076;18.208;2023-05-22T03:56:23;101773.63;;;13.48;67.50
21706;BME280;11014;53.076;18.208;2023-05-22T03:58:51;101771.09;;;13.53;67.82
21706;BME280;11014;53.076;18.208;2023-05-22T04:01:22;101778.31;;;13.59;67.57
21706;BME280;11014;53.076;18.208;2023-05-22T04:03:50;101777.41;;;13.65;67.74
21706;BME280;11014;53.076;18.208;2023-05-22T04:06:19;101777.56;;;13.70;67.65
21706;BME280;11014;53.076;18.208;2023-05-22T04:08:48;101765.06;;;13.76;67.92
21706;BME280;11014;53.076;18.208;2023-05-22T04:11:17;101777.44;;;13.83;68.09
21706;BME280;11014;53.076;18.208;2023-05-22T04:13:48;101761.59;;;13.87;68.21
21706;BME280;11014;53.076;18.208;2023-05-22T04:16:17;101762.59;;;13.92;67.89
21706;BME280;11014;53.076;18.208;2023-05-22T04:18:47;101767.69;;;14.00;67.82
21706;BME280;11014;53.076;18.208;2023-05-22T04:21:15;101773.25;;;14.05;68.31
21706;BME280;11014;53.076;18.208;2023-05-22T04:23:45;101772.94;;;14.13;68.33
21706;BME280;11014;53.076;18.208;2023-05-22T04:26:15;101769.94;;;14.21;68.49
21706;BME280;11014;53.076;18.208;2023-05-22T04:28:45;101764.38;;;14.35;68.74
21706;BME280;11014;53.076;18.208;2023-05-22T04:31:14;101770.09;;;14.45;68.89
21706;BME280;11014;53.076;18.208;2023-05-22T04:33:43;101764.97;;;14.55;69.28
21706;BME280;11014;53.076;18.208;2023-05-22T04:36:15;101764.78;;;14.68;69.58
21706;BME280;11014;53.076;18.208;2023-05-22T04:38:50;101764.34;;;14.82;69.57
21706;BME280;11014;53.076;18.208;2023-05-22T04:41:19;101760.16;;;14.98;69.46
21706;BME280;11014;53.076;18.208;2023-05-22T04:43:51;101760.78;;;15.12;69.44
21706;BME280;11014;53.076;18.208;2023-05-22T04:46:21;101763.88;;;15.27;69.59
21706;BME280;11014;53.076;18.208;2023-05-22T04:48:49;101756.09;;;15.42;69.38
21706;BME280;11014;53.076;18.208;2023-05-22T04:51:18;101751.88;;;15.58;68.93
21706;BME280;11014;53.076;18.208;2023-05-22T04:53:46;101756.59;;;15.74;68.91
21706;BME280;11014;53.076;18.208;2023-05-22T04:56:17;101757.53;;;15.91;68.61
21706;BME280;11014;53.076;18.208;2023-05-22T04:59:01;101749.00;;;16.11;67.88
21706;BME280;11014;53.076;18.208;2023-05-22T05:01:33;101743.41;;;16.29;67.05
21706;BME280;11014;53.076;18.208;2023-05-22T05:04:03;101747.81;;;16.46;66.48
21706;BME280;11014;53.076;18.208;2023-05-22T05:06:32;101749.31;;;16.66;65.85
21706;BME280;11014;53.076;18.208;2023-05-22T05:09:05;101749.66;;;16.86;65.05
21706;BME280;11014;53.076;18.208;2023-05-22T05:11:35;101753.22;;;17.03;64.35
21706;BME280;11014;53.076;18.208;2023-05-22T05:14:04;101751.56;;;17.18;64.10
21706;BME280;11014;53.076;18.208;2023-05-22T05:16:33;101753.72;;;17.33;62.79
21706;BME280;11014;53.076;18.208;2023-05-22T05:19:01;101752.88;;;17.49;62.03
21706;BME280;11014;53.076;18.208;2023-05-22T05:21:32;101750.94;;;17.61;60.72
21706;BME280;11014;53.076;18.208;2023-05-22T05:24:01;101757.66;;;17.75;59.87
21706;BME280;11014;53.076;18.208;2023-05-22T05:26:30;101763.22;;;17.86;59.46
21706;BME280;11014;53.076;18.208;2023-05-22T05:28:59;101763.38;;;17.96;58.66
21706;BME280;11014;53.076;18.208;2023-05-22T05:31:35;101758.66;;;18.08;58.92
21706;BME280;11014;53.076;18.208;2023-05-22T05:34:15;101767.75;;;18.18;57.96
21706;BME280;11014;53.076;18.208;2023-05-22T05:37:00;101765.66;;;18.25;56.94
21706;BME280;11014;53.076;18.208;2023-05-22T05:39:30;101762.19;;;18.30;56.10
21706;BME280;11014;53.076;18.208;2023-05-22T05:42:01;101768.00;;;18.39;56.18
21706;BME280;11014;53.076;18.208;2023-05-22T05:44:30;101758.25;;;18.43;55.57
21706;BME280;11014;53.076;18.208;2023-05-22T05:46:59;101766.25;;;18.49;55.38
21706;BME280;11014;53.076;18.208;2023-05-22T05:49:28;101758.69;;;18.56;54.53
21706;BME280;11014;53.076;18.208;2023-05-22T05:51:57;101756.84;;;18.62;54.39
21706;BME280;11014;53.076;18.208;2023-05-22T05:54:26;101754.50;;;18.70;54.41
21706;BME280;11014;53.076;18.208;2023-05-22T05:57:00;101754.59;;;18.80;54.78
21706;BME280;11014;53.076;18.208;2023-05-22T05:59:29;101758.50;;;18.89;54.03
21706;BME280;11014;53.076;18.208;2023-05-22T06:02:28;101753.69;;;19.02;53.88
21706;BME280;11014;53.076;18.208;2023-05-22T06:04:59;101757.03;;;19.09;53.42
21706;BME280;11014;53.076;18.208;2023-05-22T06:07:33;101743.47;;;19.14;52.32
21706;BME280;11014;53.076;18.208;2023-05-22T06:10:10;101747.88;;;19.20;52.22
21706;BME280;11014;53.076;18.208;2023-05-22T06:13:10;101742.25;;;19.31;51.78
21706;BME280;11014;53.076;18.208;2023-05-22T06:15:38;101754.81;;;19.37;51.77
21706;BME280;11014;53.076;18.208;2023-05-22T06:18:07;101743.44;;;19.45;51.44
21706;BME280;11014;53.076;18.208;2023-05-22T06:20:37;101744.06;;;19.52;51.76
21706;BME280;11014;53.076;18.208;2023-05-22T06:23:07;101741.91;;;19.60;51.86
21706;BME280;11014;53.076;18.208;2023-05-22T06:25:36;101741.16;;;19.69;51.44
21706;BME280;11014;53.076;18.208;2023-05-22T06:28:07;101747.22;;;19.81;51.30
21706;BME280;11014;53.076;18.208;2023-05-22T06:30:36;101743.97;;;19.89;51.50
21706;BME280;11014;53.076;18.208;2023-05-22T06:33:12;101736.66;;;20.00;50.94
21706;BME280;11014;53.076;18.208;2023-05-22T06:35:42;101744.63;;;20.11;51.12
21706;BME280;11014;53.076;18.208;2023-05-22T06:38:11;101744.16;;;20.25;51.28
21706;BME280;11014;53.076;18.208;2023-05-22T06:40:41;101745.84;;;20.36;50.34
21706;BME280;11014;53.076;18.208;2023-05-22T06:43:15;101740.97;;;20.48;49.71
21706;BME280;11014;53.076;18.208;2023-05-22T06:45:51;101745.09;;;20.60;49.40
21706;BME280;11014;53.076;18.208;2023-05-22T06:48:23;101742.66;;;20.74;49.95
21706;BME280;11014;53.076;18.208;2023-05-22T06:51:14;101739.97;;;20.89;49.59
21706;BME280;11014;53.076;18.208;2023-05-22T06:53:45;101739.41;;;21.02;49.09
21706;BME280;11014;53.076;18.208;2023-05-22T06:56:18;101729.06;;;21.14;49.00
21706;BME280;11014;53.076;18.208;2023-05-22T06:58:52;101732.88;;;21.28;48.55
21706;BME280;11014;53.076;18.208;2023-05-22T07:01:24;101728.47;;;21.43;48.69
21706;BME280;11014;53.076;18.208;2023-05-22T07:04:07;101725.75;;;21.58;48.40
21706;BME280;11014;53.076;18.208;2023-05-22T07:07:04;101717.47;;;21.73;47.04
21706;BME280;11014;53.076;18.208;2023-05-22T07:09:33;101724.56;;;21.84;46.40
21706;BME280;11014;53.076;18.208;2023-05-22T07:12:04;101715.25;;;21.95;45.81
21706;BME280;11014;53.076;18.208;2023-05-22T07:14:34;101725.59;;;22.08;46.47
21706;BME280;11014;53.076;18.208;2023-05-22T07:17:03;101718.44;;;22.17;45.88
21706;BME280;11014;53.076;18.208;2023-05-22T07:19:38;101721.69;;;22.29;44.63
21706;BME280;11014;53.076;18.208;2023-05-22T07:22:06;101721.88;;;22.38;44.27
21706;BME280;11014;53.076;18.208;2023-05-22T07:24:37;101726.19;;;22.49;43.49
21706;BME280;11014;53.076;18.208;2023-05-22T07:27:07;101728.34;;;22.57;42.90
21706;BME280;11014;53.076;18.208;2023-05-22T07:29:37;101716.28;;;22.63;41.52
21706;BME280;11014;53.076;18.208;2023-05-22T07:32:08;101714.59;;;22.72;40.53
21706;BME280;11014;53.076;18.208;2023-05-22T07:34:37;101716.72;;;22.80;41.19
21706;BME280;11014;53.076;18.208;2023-05-22T07:37:11;101708.69;;;22.89;40.50
21706;BME280;11014;53.076;18.208;2023-05-22T07:39:41;101713.53;;;23.02;40.25
21706;BME280;11014;53.076;18.208;2023-05-22T07:42:10;101711.81;;;23.11;40.74
21706;BME280;11014;53.076;18.208;2023-05-22T07:44:47;101714.44;;;23.21;39.65
21706;BME280;11014;53.076;18.208;2023-05-22T07:47:17;101720.94;;;23.30;40.06
21706;BME280;11014;53.076;18.208;2023-05-22T07:49:47;101712.34;;;23.42;39.82
21706;BME280;11014;53.076;18.208;2023-05-22T07:52:16;101705.94;;;23.51;38.89
21706;BME280;11014;53.076;18.208;2023-05-22T07:54:45;101708.56;;;23.62;38.99
21706;BME280;11014;53.076;18.208;2023-05-22T07:57:15;101707.66;;;23.71;38.85
21706;BME280;11014;53.076;18.208;2023-05-22T07:59:44;101710.59;;;23.80;38.15
21706;BME280;11014;53.076;18.208;2023-05-22T08:02:13;101713.19;;;23.90;38.47
21706;BME280;11014;53.076;18.208;2023-05-22T08:04:42;101704.81;;;24.00;37.89
21706;BME280;11014;53.076;18.208;2023-05-22T08:07:11;101712.94;;;24.10;39.10
21706;BME280;11014;53.076;18.208;2023-05-22T08:09:40;101705.44;;;24.21;37.92
21706;BME280;11014;53.076;18.208;2023-05-22T08:12:08;101705.56;;;24.29;38.04
21706;BME280;11014;53.076;18.208;2023-05-22T08:14:38;101710.69;;;24.36;37.34
21706;BME280;11014;53.076;18.208;2023-05-22T08:17:07;101705.63;;;24.43;37.69
21706;BME280;11014;53.076;18.208;2023-05-22T08:19:36;101708.53;;;24.51;37.92
21706;BME280;11014;53.076;18.208;2023-05-22T08:22:04;101697.41;;;24.61;37.37
21706;BME280;11014;53.076;18.208;2023-05-22T08:24:33;101697.25;;;24.71;38.29
21706;BME280;11014;53.076;18.208;2023-05-22T08:27:03;101695.50;;;24.81;35.54
21706;BME280;11014;53.076;18.208;2023-05-22T08:29:32;101684.91;;;24.88;35.47
21706;BME280;11014;53.076;18.208;2023-05-22T08:32:00;101688.03;;;25.00;38.03
21706;BME280;11014;53.076;18.208;2023-05-22T08:34:29;101686.19;;;25.09;37.42
21706;BME280;11014;53.076;18.208;2023-05-22T08:36:59;101680.22;;;25.20;37.57
21706;BME280;11014;53.076;18.208;2023-05-22T08:39:28;101684.09;;;25.33;37.59
21706;BME280;11014;53.076;18.208;2023-05-22T08:41:57;101679.75;;;25.46;38.99
21706;BME280;11014;53.076;18.208;2023-05-22T08:44:26;101683.16;;;25.56;37.26
21706;BME280;11014;53.076;18.208;2023-05-22T08:46:55;101679.59;;;25.69;36.36
21706;BME280;11014;53.076;18.208;2023-05-22T08:49:27;101681.50;;;25.82;37.06
21706;BME280;11014;53.076;18.208;2023-05-22T08:52:01;101680.78;;;25.90;35.51
21706;BME280;11014;53.076;18.208;2023-05-22T08:54:32;101678.56;;;25.92;33.75
21706;BME280;11014;53.076;18.208;2023-05-22T08:57:04;101670.19;;;25.98;35.52
21706;BME280;11014;53.076;18.208;2023-05-22T08:59:38;101677.28;;;26.12;35.58
21706;BME280;11014;53.076;18.208;2023-05-22T09:02:07;101673.03;;;26.20;33.08
21706;BME280;11014;53.076;18.208;2023-05-22T09:04:36;101670.53;;;26.32;33.32
21706;BME280;11014;53.076;18.208;2023-05-22T09:07:04;101663.38;;;26.44;33.89
21706;BME280;11014;53.076;18.208;2023-05-22T09:09:37;101665.94;;;26.63;32.19
21706;BME280;11014;53.076;18.208;2023-05-22T09:12:07;101658.03;;;26.70;32.57
21706;BME280;11014;53.076;18.208;2023-05-22T09:14:40;101649.88;;;26.79;31.52
21706;BME280;11014;53.076;18.208;2023-05-22T09:17:10;101645.88;;;26.85;31.35
21706;BME280;11014;53.076;18.208;2023-05-22T09:19:43;101636.81;;;26.93;31.42
21706;BME280;11014;53.076;18.208;2023-05-22T09:22:12;101643.91;;;27.08;32.42
21706;BME280;11014;53.076;18.208;2023-05-22T09:24:43;101633.88;;;27.20;30.95
21706;BME280;11014;53.076;18.208;2023-05-22T09:27:11;101621.25;;;27.28;30.79
21706;BME280;11014;53.076;18.208;2023-05-22T09:29:48;101624.75;;;27.42;31.15
21706;BME280;11014;53.076;18.208;2023-05-22T09:32:17;101629.63;;;27.45;28.97
21706;BME280;11014;53.076;18.208;2023-05-22T09:34:46;101621.22;;;27.50;29.36
21706;BME280;11014;53.076;18.208;2023-05-22T09:37:16;101621.06;;;27.55;30.60
21706;BME280;11014;53.076;18.208;2023-05-22T09:39:46;101622.22;;;27.54;30.71
21706;BME280;11014;53.076;18.208;2023-05-22T09:42:15;101621.69;;;27.52;28.78
21706;BME280;11014;53.076;18.208;2023-05-22T09:44:48;101618.78;;;27.57;32.30
21706;BME280;11014;53.076;18.208;2023-05-22T09:47:17;101620.78;;;27.65;31.78
21706;BME280;11014;53.076;18.208;2023-05-22T09:49:45;101616.56;;;27.76;31.63
21706;BME280;11014;53.076;18.208;2023-05-22T09:52:16;101612.69;;;27.86;30.73
21706;BME280;11014;53.076;18.208;2023-05-22T09:54:52;101610.00;;;28.03;31.05
21706;BME280;11014;53.076;18.208;2023-05-22T09:57:24;101611.94;;;28.02;32.38
21706;BME280;11014;53.076;18.208;2023-05-22T09:59:54;101610.47;;;28.13;31.88
21706;BME280;11014;53.076;18.208;2023-05-22T10:02:27;101606.09;;;28.21;29.18
21706;BME280;11014;53.076;18.208;2023-05-22T10:04:56;101612.75;;;28.29;31.95
21706;BME280;11014;53.076;18.208;2023-05-22T10:07:31;101595.84;;;28.39;29.41
21706;BME280;11014;53.076;18.208;2023-05-22T10:10:11;101601.56;;;28.25;27.22
21706;BME280;11014;53.076;18.208;2023-05-22T10:12:44;101600.56;;;28.04;27.97
21706;BME280;11014;53.076;18.208;2023-05-22T10:15:16;101586.88;;;27.90;27.96
21706;BME280;11014;53.076;18.208;2023-05-22T10:17:46;101581.34;;;27.90;28.89
21706;BME280;11014;53.076;18.208;2023-05-22T10:20:19;101586.06;;;27.98;28.77
21706;BME280;11014;53.076;18.208;2023-05-22T10:22:47;101579.94;;;28.18;28.53
21706;BME280;11014;53.076;18.208;2023-05-22T10:25:16;101574.06;;;28.29;27.83
21706;BME280;11014;53.076;18.208;2023-05-22T10:27:46;101587.53;;;28.47;29.43
21706;BME280;11014;53.076;18.208;2023-05-22T10:33:24;101570.59;;;28.74;26.64
21706;BME280;11014;53.076;18.208;2023-05-22T10:36:09;101575.00;;;28.67;27.43
21706;BME280;11014;53.076;18.208;2023-05-22T10:39:06;101576.59;;;28.85;27.58
21706;BME280;11014;53.076;18.208;2023-05-22T10:41:39;101566.03;;;28.78;27.92
21706;BME280;11014;53.076;18.208;2023-05-22T10:44:08;101563.28;;;28.70;27.71
21706;BME280;11014;53.076;18.208;2023-05-22T10:46:39;101556.75;;;28.83;28.27
21706;BME280;11014;53.076;18.208;2023-05-22T10:49:07;101554.75;;;28.92;27.96
21706;BME280;11014;53.076;18.208;2023-05-22T10:51:36;101551.16;;;29.00;27.67
21706;BME280;11014;53.076;18.208;2023-05-22T10:54:04;101543.00;;;29.04;27.37
21706;BME280;11014;53.076;18.208;2023-05-22T10:56:34;101554.69;;;29.09;28.23
21706;BME280;11014;53.076;18.208;2023-05-22T10:59:04;101544.72;;;29.17;27.50
21706;BME280;11014;53.076;18.208;2023-05-22T11:01:34;101540.97;;;29.21;26.53
21706;BME280;11014;53.076;18.208;2023-05-22T11:04:23;101553.97;;;29.29;27.38
21706;BME280;11014;53.076;18.208;2023-05-22T11:07:03;101542.38;;;29.36;27.06
21706;BME280;11014;53.076;18.208;2023-05-22T11:09:45;101529.31;;;29.45;26.30
21706;BME280;11014;53.076;18.208;2023-05-22T11:15:04;101532.06;;;29.66;27.94
21706;BME280;11014;53.076;18.208;2023-05-22T11:17:40;101536.75;;;29.74;27.28
21706;BME280;11014;53.076;18.208;2023-05-22T11:20:21;101534.94;;;29.78;26.08
21706;BME280;11014;53.076;18.208;2023-05-22T11:23:00;101533.50;;;29.72;27.21
21706;BME280;11014;53.076;18.208;2023-05-22T11:25:28;101527.97;;;29.72;28.30
21706;BME280;11014;53.076;18.208;2023-05-22T11:28:04;101531.25;;;29.94;27.57
21706;BME280;11014;53.076;18.208;2023-05-22T11:30:33;101527.25;;;30.04;25.71
21706;BME280;11014;53.076;18.208;2023-05-22T11:33:04;101520.41;;;30.02;25.40
21706;BME280;11014;53.076;18.208;2023-05-22T11:35:33;101517.53;;;30.31;25.07
21706;BME280;11014;53.076;18.208;2023-05-22T11:38:04;101524.00;;;30.02;25.51
21706;BME280;11014;53.076;18.208;2023-05-22T11:40:35;101524.88;;;29.94;28.19
21706;BME280;11014;53.076;18.208;2023-05-22T11:43:03;101518.41;;;29.90;25.65
21706;BME280;11014;53.076;18.208;2023-05-22T11:45:35;101521.31;;;29.93;26.30
21706;BME280;11014;53.076;18.208;2023-05-22T11:48:07;101517.72;;;29.93;25.55
21706;BME280;11014;53.076;18.208;2023-05-22T11:50:38;101520.03;;;29.91;26.76
21706;BME280;11014;53.076;18.208;2023-05-22T11:53:10;101514.19;;;29.84;26.38
21706;BME280;11014;53.076;18.208;2023-05-22T11:55:41;101510.28;;;29.85;25.83
21706;BME280;11014;53.076;18.208;2023-05-22T11:58:10;101510.53;;;29.92;25.96
21706;BME280;11014;53.076;18.208;2023-05-22T12:00:38;101502.69;;;30.15;25.42
21706;BME280;11014;53.076;18.208;2023-05-22T12:03:07;101499.06;;;30.35;24.06
21706;BME280;11014;53.076;18.208;2023-05-22T12:05:35;101505.00;;;30.58;26.43
21706;BME280;11014;53.076;18.208;2023-05-22T12:08:05;101498.13;;;30.76;26.67
21706;BME280;11014;53.076;18.208;2023-05-22T12:10:34;101489.91;;;30.91;25.20
21706;BME280;11014;53.076;18.208;2023-05-22T12:13:03;101496.22;;;31.00;24.75
21706;BME280;11014;53.076;18.208;2023-05-22T12:15:31;101500.47;;;31.10;24.70
21706;BME280;11014;53.076;18.208;2023-05-22T12:18:00;101489.38;;;31.10;24.48
21706;BME280;11014;53.076;18.208;2023-05-22T12:20:33;101491.91;;;31.15;24.65
21706;BME280;11014;53.076;18.208;2023-05-22T12:23:02;101486.13;;;31.20;23.95
21706;BME280;11014;53.076;18.208;2023-05-22T12:25:35;101480.03;;;31.94;23.63
21706;BME280;11014;53.076;18.208;2023-05-22T12:28:06;101479.97;;;33.09;23.58
21706;BME280;11014;53.076;18.208;2023-05-22T12:30:40;101477.13;;;33.78;22.09
21706;BME280;11014;53.076;18.208;2023-05-22T12:33:13;101483.34;;;33.91;21.07
21706;BME280;11014;53.076;18.208;2023-05-22T12:35:44;101482.72;;;33.59;21.61
21706;BME280;11014;53.076;18.208;2023-05-22T12:38:13;101473.53;;;33.24;22.31
21706;BME280;11014;53.076;18.208;2023-05-22T12:40:42;101473.13;;;32.91;22.73
21706;BME280;11014;53.076;18.208;2023-05-22T12:43:11;101473.31;;;33.67;22.91
21706;BME280;11014;53.076;18.208;2023-05-22T12:45:39;101464.00;;;35.08;20.73
21706;BME280;11014;53.076;18.208;2023-05-22T12:48:10;101465.38;;;36.98;19.04
21706;BME280;11014;53.076;18.208;2023-05-22T12:50:39;101462.72;;;37.95;19.79
21706;BME280;11014;53.076;18.208;2023-05-22T12:53:09;101451.59;;;38.73;18.42
21706;BME280;11014;53.076;18.208;2023-05-22T12:55:38;101447.56;;;38.95;18.24
21706;BME280;11014;53.076;18.208;2023-05-22T12:58:11;101444.97;;;39.67;18.13
21706;BME280;11014;53.076;18.208;2023-05-22T13:00:39;101446.94;;;40.40;19.09
21706;BME280;11014;53.076;18.208;2023-05-22T13:03:10;101441.94;;;41.43;16.24
21706;BME280;11014;53.076;18.208;2023-05-22T13:05:39;101439.41;;;41.52;15.71
21706;BME280;11014;53.076;18.208;2023-05-22T13:08:10;101441.88;;;41.50;15.77
21706;BME280;11014;53.076;18.208;2023-05-22T13:10:40;101431.84;;;41.08;16.01
21706;BME280;11014;53.076;18.208;2023-05-22T13:13:08;101434.59;;;40.74;15.60
21706;BME280;11014;53.076;18.208;2023-05-22T13:15:39;101425.09;;;40.58;16.53
21706;BME280;11014;53.076;18.208;2023-05-22T13:18:08;101429.69;;;39.76;16.03